Flight Track Log - Related Links

Times and Time Zones

All times are in EDT time to prevent confusion due to time zone crossing. See the UAL4336 flight status page for this flight to view local times or setup timezone preferences in your user account.

Time Position Orientation Groundspeed Altitude Reporting Facility
EDT Latitude Longitude Course Direction KTS MPH feet Rate Location/Type
Sun 09:04:55 AM 29.9547 -95.3372 126° Southeast 156 180 900  Level Houston Center
Sun 09:05:31 AM 29.9461 -95.3092 109° East 164 189 2,200 1,676 Climbing Houston Center
Sun 09:06:03 AM 29.9472 -95.2806 87° East 172 198 2,800 1,164 Climbing Houston Center
Sun 09:06:38 AM 29.9494 -95.2317 87° East 258 297 3,500 1,475 Climbing Houston Center
Sun 09:07:00 AM 30.1673 -95.0325 90° East  Level Estimated
Sun 09:07:04 AM 29.9511 -95.2044 86° East 225 259 4,300  Level Houston Center
Sun 09:07:39 AM 29.9542 -95.1492 86° East 254 292 5,700 2,066 Climbing Houston Center
Sun 09:08:00 AM 30.2281 -94.9293 90° East  Level Estimated
Sun 09:08:05 AM 29.9561 -95.1219 85° East 254 292 6,400  Level Houston Center
Sun 09:09:00 AM 30.2888 -94.8259 90° East  Level Estimated
Sun 09:09:06 AM 29.9606 -95.0381 86° East 259 298 8,300  Level Houston Center
Sun 09:10:00 AM 30.2246 -94.7254 126° Southeast  Level FlightAware Approximate
Sun 09:10:07 AM 29.9650 -94.9508 87° East 267 307 10,100  Level Houston Center
Sun 09:11:08 AM 29.9703 -94.8567 86° East 287 330 10,800 787 Climbing Houston Center
Sun 09:12:09 AM 29.9756 -94.7492 87° East 324 373 11,700 934 Climbing Houston Center
Sun 09:13:10 AM 29.9817 -94.6367 86° East 344 396 12,700 1,082 Climbing Houston Center
Sun 09:14:11 AM 29.9864 -94.5231 87° East 352 405 13,900 1,122 Climbing Houston Center
Sun 09:15:13 AM 29.9917 -94.3975 87° East 354 407 15,000 1,073 Climbing Houston Center
Sun 09:16:14 AM 29.9983 -94.2817 86° East 359 413 16,100 1,082 Climbing Houston Center
Sun 09:17:15 AM 30.0128 -94.1683 82° East 357 411 17,200 1,033 Climbing Houston Center
Sun 09:18:16 AM 30.0267 -94.0550 82° East 357 411 18,200 1,033 Climbing Houston Center
Sun 09:19:17 AM 30.0414 -93.9411 81° East 360 414 19,300 984 Climbing Houston Center
Sun 09:20:18 AM 30.0550 -93.8272 82° East 361 415 20,200 1,073 Climbing Houston Center
Sun 09:21:20 AM 30.0714 -93.6897 82° East 364 419 21,500 1,122 Climbing Houston Center
Sun 09:22:21 AM 30.0853 -93.5744 82° East 367 422 22,500 984 Climbing Houston Center
Sun 09:23:22 AM 30.0986 -93.4586 82° East 370 426 23,500 1,033 Climbing Houston Center
Sun 09:24:23 AM 30.1117 -93.3436 82° East 366 421 24,600 1,033 Climbing Houston Center
Sun 09:25:24 AM 30.1253 -93.2303 82° East 362 417 25,600 976 Climbing Houston Center
Sun 09:26:26 AM 30.1394 -93.1164 82° East 363 418 26,600 976 Climbing Houston Center
Sun 09:27:27 AM 30.1892 -93.0156 60° Northeast 365 420 27,600 984 Climbing Houston Center
Sun 09:28:28 AM 30.2422 -92.9192 57° Northeast 360 414 28,600 1,082 Climbing Houston Center
Sun 09:29:29 AM 30.3067 -92.8006 58° Northeast 363 418 29,800 1,082 Climbing Houston Center
Sun 09:30:30 AM 30.3597 -92.7019 58° Northeast 364 419 30,800 976 Climbing Houston Center
Sun 09:31:32 AM 30.4133 -92.6050 57° Northeast 360 414 31,800 976 Climbing Houston Center
Sun 09:32:33 AM 30.4667 -92.5067 58° Northeast 361 415 32,800 1,033 Climbing Houston Center
Sun 09:33:34 AM 30.5219 -92.4047 58° Northeast 356 410 33,900 1,033 Climbing Houston Center
Sun 09:34:35 AM 30.5728 -92.3078 59° Northeast 354 407 34,900 537 Climbing Houston Center
Sun 09:35:37 AM 30.6264 -92.2103 57° Northeast 358 412 35,000 49 Climbing Houston Center
Sun 09:36:38 AM 30.6817 -92.1058 58° Northeast 375 432 35,000  Level Houston Center
Sun 09:37:39 AM 30.7411 -91.9964 58° Northeast 396 456 35,000  Level Houston Center
Sun 09:38:41 AM 30.8036 -91.8789 58° Northeast 420 483 35,000  Level Houston Center
Sun 09:39:42 AM 30.8811 -91.7350 58° Northeast 440 506 35,000  Level Houston Center
Sun 09:40:43 AM 30.9472 -91.6119 58° Northeast 449 517 35,000  Level Houston Center
Sun 09:41:44 AM 31.0100 -91.4908 59° Northeast 441 507 35,000 -49 Level Houston Center
Sun 09:42:46 AM 31.0758 -91.3681 58° Northeast 434 499 34,900  Descending Houston Center
Sun 09:43:47 AM 31.1392 -91.2458 59° Northeast 438 504 35,000 49 Climbing Houston Center
Sun 09:44:48 AM 31.2044 -91.1239 58° Northeast 442 509 35,000  Level Houston Center
Sun 09:45:50 AM 31.2667 -91.0019 59° Northeast 438 504 35,000  Level Houston Center
Sun 09:46:51 AM 31.3300 -90.8814 58° Northeast 435 501 35,000  Level Houston Center
Sun 09:47:53 AM 31.3925 -90.7614 59° Northeast 433 498 35,000  Level Houston Center
Sun 09:48:54 AM 31.4533 -90.6417 59° Northeast 430 495 35,000  Level Houston Center
Sun 09:49:55 AM 31.5150 -90.5228 59° Northeast 427 491 35,000  Level Houston Center
Sun 09:50:57 AM 31.5892 -90.3781 59° Northeast 430 495 35,000 -49 Level Houston Center
Sun 09:51:58 AM 31.6517 -90.2581 59° Northeast 430 495 34,900  Descending Houston Center
Sun 09:53:00 AM 31.7125 -90.1375 59° Northeast 430 495 35,000  Climbing Houston Center
Sun 09:54:01 AM 31.7739 -90.0169 59° Northeast 430 495 34,900  Descending Houston Center
Sun 09:55:03 AM 31.8356 -89.8958 59° Northeast 430 495 35,000 50 Climbing Houston Center
Sun 09:56:02 AM 31.8981 -89.7678 60° Northeast 421 484 35,000  Level Memphis Center
Sun 09:57:02 AM 31.9539 -89.6572 59° Northeast 426 490 35,000  Level Memphis Center
Sun 09:58:02 AM 32.0158 -89.5367 59° Northeast 426 490 35,000  Level Memphis Center
Sun 09:59:02 AM 32.0756 -89.4158 60° Northeast 421 484 35,000  Level Memphis Center
Sun 10:00:02 AM 32.1350 -89.2950 60° Northeast 421 484 35,000  Level Memphis Center
Sun 10:01:02 AM 32.1944 -89.1742 60° Northeast 421 484 35,000  Level Memphis Center
Sun 10:02:02 AM 32.2558 -89.0553 59° Northeast 426 490 35,000  Level Memphis Center
Sun 10:03:02 AM 32.3150 -88.9364 59° Northeast 426 490 35,000  Level Memphis Center
Sun 10:04:02 AM 32.3764 -88.8125 60° Northeast 426 490 35,000  Level Memphis Center
Sun 10:05:02 AM 32.4500 -88.7056 51° Northeast 421 484 35,000  Level Memphis Center
Sun 10:06:02 AM 32.5236 -88.5981 51° Northeast 421 484 35,000  Level Memphis Center
Sun 10:07:45 AM 32.6542 -88.4178 49° Northeast 419 482 35,000  Level Atlanta Center
Sun 10:08:45 AM 32.7336 -88.2933 53° Northeast 424 488 35,000  Level Atlanta Center
Sun 10:09:45 AM 32.8083 -88.1808 52° Northeast 431 496 35,000  Level Atlanta Center
Sun 10:10:45 AM 32.8808 -88.0706 52° Northeast 431 496 35,000  Level Atlanta Center
Sun 10:11:45 AM 32.9550 -87.9725 48° Northeast 431 496 35,000  Level Atlanta Center
Sun 10:12:45 AM 33.0297 -87.8519 54° Northeast 432 497 35,000  Level Atlanta Center
Sun 10:13:45 AM 33.1039 -87.7461 50° Northeast 424 488 35,000  Level Atlanta Center
Sun 10:14:45 AM 33.1761 -87.6350 52° Northeast 419 482 35,000  Level Atlanta Center
Sun 10:15:45 AM 33.2522 -87.5264 50° Northeast 419 482 35,000  Level Atlanta Center
Sun 10:16:45 AM 33.3264 -87.4100 53° Northeast 424 488 35,000  Level Atlanta Center
Sun 10:17:45 AM 33.4025 -87.3008 50° Northeast 424 488 35,000  Level Atlanta Center
Sun 10:18:45 AM 33.4742 -87.1892 52° Northeast 424 488 35,000  Level Atlanta Center
Sun 10:19:45 AM 33.5503 -87.0772 51° Northeast 429 494 35,000  Level Atlanta Center
Sun 10:20:45 AM 33.6239 -86.9625 52° Northeast 429 494 35,000  Level Atlanta Center
Sun 10:21:45 AM 33.7017 -86.8553 49° Northeast 429 494 35,000  Level Atlanta Center
Sun 10:22:45 AM 33.7811 -86.7506 48° Northeast 424 488 35,000  Level Atlanta Center
Sun 10:23:45 AM 33.8606 -86.6456 48° Northeast 424 488 35,000  Level Atlanta Center
Sun 10:24:45 AM 33.9422 -86.5353 48° Northeast 429 494 35,000  Level Atlanta Center
Sun 10:25:45 AM 34.0214 -86.4297 48° Northeast 429 494 35,000  Level Atlanta Center
Sun 10:26:45 AM 34.1008 -86.3217 48° Northeast 429 494 35,000  Level Atlanta Center
Sun 10:27:45 AM 34.1819 -86.2133 48° Northeast 429 494 35,000  Level Atlanta Center
Sun 10:28:45 AM 34.2611 -86.1047 49° Northeast 429 494 35,000 -300 Level Atlanta Center
Sun 10:29:45 AM 34.3422 -85.9986 47° Northeast 424 488 34,400 -1,000 Descending Atlanta Center
Sun 10:30:45 AM 34.4125 -85.9044 48° Northeast 424 488 33,000 -1,850 Descending Atlanta Center
Sun 10:31:45 AM 34.4997 -85.7881 48° Northeast 424 488 30,700 -2,400 Descending Atlanta Center
Sun 10:32:45 AM 34.5828 -85.6786 47° Northeast 424 488 28,200 -2,500 Descending Atlanta Center
Sun 10:33:45 AM 34.6656 -85.5617 49° Northeast 437 503 25,700 -2,100 Descending Atlanta Center
Sun 10:34:45 AM 34.7483 -85.4469 49° Northeast 442 509 24,000 -850 Descending Atlanta Center
Sun 10:35:45 AM 34.8311 -85.3344 48° Northeast 442 509 24,000  Level Atlanta Center
Sun 10:36:45 AM 34.9092 -85.2242 49° Northeast 442 509 24,000  Level Atlanta Center
Sun 10:37:45 AM 34.9939 -85.1114 47° Northeast 437 503 24,000  Level Atlanta Center
Sun 10:38:45 AM 35.0781 -85.0006 47° Northeast 437 503 24,000  Level Atlanta Center
Sun 10:39:45 AM 35.1625 -84.8897 47° Northeast 437 503 24,000  Level Atlanta Center
Sun 10:40:45 AM 35.2486 -84.7764 47° Northeast 437 503 24,000 -900 Level Atlanta Center
Sun 10:41:45 AM 35.3308 -84.6650 48° Northeast 437 503 22,200 -2,700 Descending Atlanta Center
Sun 10:42:45 AM 35.4106 -84.5586 47° Northeast 437 503 18,600 -3,750 Descending Atlanta Center
Sun 10:43:45 AM 35.4839 -84.4622 47° Northeast 413 475 14,700 -3,950 Descending Atlanta Center
Sun 10:44:45 AM 35.5550 -84.3681 47° Northeast 387 445 10,700 -2,700 Descending Atlanta Center
Sun 10:45:45 AM 35.6158 -84.2867 47° Northeast 353 406 9,300 -2,050 Descending Atlanta Center
Sun 10:46:45 AM 35.6744 -84.2178 44° Northeast 308 354 6,600 -2,450 Descending Atlanta Center
Sun 10:47:45 AM 35.7119 -84.1461 57° Northeast 274 315 4,400 -1,800 Descending Atlanta Center
Sun 10:48:45 AM 35.7433 -84.0772 61° Northeast 246 283 3,000 -1,300 Descending Atlanta Center
Sun 10:49:45 AM 35.7767 -84.0389 43° Northeast 198 228 1,800 -1,050 Descending Atlanta Center
Sun 10:50:45 AM 35.8017 -84.0056 47° Northeast 154 177 900 -450 Descending Atlanta Center
Sun 10:51:45 AM 35.8267 -83.9644 53° Northeast 154 177 900  Level Atlanta Center

Login

Don't have an account? Register now (free) for customized features, flight alerts, and more!